• Join FlightAware (Why Join?)
  • Login
  • US Flag 
05:20PM EDT


 

Airport Tracker/Info


-or-


 

Live Flight TrackerFlight Track Log ✈ N919VT ✈ 15-Sep-2013 ✈ KWST - KFRG

Flight Track Log - Related Links

Times and Time Zones

All times are in EDT time to prevent confusion due to time zone crossing. See the N919VT flight status page for this flight to view local times or setup timezone preferences in your user account.

Time Position Orientation Groundspeed Altitude Reporting Facility
EDT Latitude Longitude Course Direction KTS MPH feet Rate Location/Type
08:32AM 41.0425 -71.8953 243° Southwest 106 122 2,800  Level Boston Center
08:32AM 41.0300 -71.9228 239° Southwest 97 112 2,900  Climbing Boston Center
08:33AM 41.0178 -71.9586 246° West 101 116 2,900 60 Level Boston Center
08:35AM 41.0000 -72.0000 240° Southwest 103 119 3,100 60 Climbing New York TRACON
08:36AM 41.2459 -72.0786 242° Southwest  Level Estimated
08:36AM 40.9833 -72.0500 246° West 103 119 3,100  Level New York TRACON
08:37AM 41.2281 -72.1241 243° Southwest  Level FlightAware Approximate
08:37AM 40.9667 -72.0833 236° Southwest 99 114 3,100  Level New York TRACON
08:38AM 40.9667 -72.1167 270° West 106 122 3,100 -60 Level New York TRACON
08:39AM 40.9500 -72.1500 237° Southwest 106 122 3,000 -60 Descending New York TRACON
08:40AM 40.9333 -72.1833 237° Southwest 104 120 3,000 4,380 Level New York TRACON
08:41AM 40.9167 -72.2167 237° Southwest 123 142 11,400 4,320 Climbing New York TRACON
08:42AM 40.9167 -72.2500 270° West 105 121 11,300 -4,260 Descending New York TRACON
08:43AM 40.9000 -72.2833 237° Southwest 106 122 2,900 -4,200 Descending New York TRACON
08:44AM 40.8833 -72.3167 237° Southwest 108 124 2,900  Level New York TRACON
08:45AM 40.8667 -72.3500 237° Southwest 103 119 2,900  Level New York TRACON
08:46AM 40.8667 -72.3833 270° West 103 119 3,000 60 Climbing New York TRACON
08:47AM 40.8500 -72.4167 237° Southwest 99 114 3,100  Climbing New York TRACON
08:48AM 40.8500 -72.4500 270° West 98 113 3,100  Level New York TRACON
08:49AM 40.8333 -72.4833 237° Southwest 97 112 3,200  Climbing New York TRACON
08:50AM 40.8167 -72.5167 237° Southwest 100 115 3,200 -60 Level New York TRACON
08:51AM 40.8167 -72.5500 270° West 102 117 3,100 -60 Descending New York TRACON
08:52AM 40.8000 -72.5833 237° Southwest 103 119 3,100  Level New York TRACON
08:53AM 40.8000 -72.6167 270° West 103 119 3,100  Level New York TRACON
08:54AM 40.7833 -72.6500 237° Southwest 104 120 3,100  Level New York TRACON
08:55AM 40.7833 -72.6833 270° West 100 115 3,100  Level New York TRACON
08:56AM 40.7667 -72.7167 237° Southwest 102 117 3,100  Level New York TRACON
08:57AM 40.7667 -72.7500 270° West 101 116 3,100  Level New York TRACON
08:58AM 40.7500 -72.7833 237° Southwest 102 117 3,100 -60 Level New York TRACON
08:59AM 40.7500 -72.8167 270° West 105 121 3,000 -60 Descending New York TRACON
09:00AM 40.7333 -72.8500 237° Southwest 101 116 3,000  Level New York TRACON
09:00AM 40.7333 -72.8833 270° West 101 116 3,000  Level New York TRACON
09:01AM 40.7167 -72.9167 237° Southwest 101 116 3,000  Level New York TRACON
09:02AM 40.7000 -72.9500 237° Southwest 101 116 3,000  Level New York TRACON
09:03AM 40.6833 -72.9833 237° Southwest 99 114 3,000  Level New York TRACON
09:04AM 40.6833 -73.0167 270° West 100 115 3,000  Level New York TRACON
09:05AM 40.6833 -73.0500 270° West 100 115 3,000  Level New York TRACON
09:06AM 40.6833 -73.0833 270° West 101 116 3,000  Level New York TRACON
09:07AM 40.6833 -73.1167 270° West 102 117 3,100  Climbing New York TRACON
09:08AM 40.6833 -73.1667 270° West 109 125 3,000 -120 Descending New York TRACON
09:09AM 40.6667 -73.2000 237° Southwest 109 125 2,900 -480 Descending New York TRACON
09:10AM 40.6667 -73.2333 270° West 114 131 2,200 -780 Descending New York TRACON
09:11AM 40.6667 -73.2833 270° West 116 133 1,400 -840 Descending New York TRACON